sensor_id;sensor_type;location;lat;lon;timestamp;P1;durP1;ratioP1;P2;durP2;ratioP2
31990;SDS011;18508;49.386;8.370;2023-02-18T00:01:47;8.55;;;4.97;;
31990;SDS011;18508;49.386;8.370;2023-02-18T00:04:15;7.90;;;4.03;;
31990;SDS011;18508;49.386;8.370;2023-02-18T00:06:45;8.70;;;3.92;;
31990;SDS011;18508;49.386;8.370;2023-02-18T00:09:15;7.68;;;4.60;;
31990;SDS011;18508;49.386;8.370;2023-02-18T00:11:44;6.85;;;4.00;;
31990;SDS011;18508;49.386;8.370;2023-02-18T00:14:14;7.75;;;4.78;;
31990;SDS011;18508;49.386;8.370;2023-02-18T00:16:43;7.07;;;4.50;;
31990;SDS011;18508;49.386;8.370;2023-02-18T00:19:17;7.57;;;4.85;;
31990;SDS011;18508;49.386;8.370;2023-02-18T00:21:47;9.27;;;4.45;;
31990;SDS011;18508;49.386;8.370;2023-02-18T00:24:16;7.55;;;4.78;;
31990;SDS011;18508;49.386;8.370;2023-02-18T00:26:48;7.28;;;4.18;;
31990;SDS011;18508;49.386;8.370;2023-02-18T00:29:17;9.23;;;4.63;;
31990;SDS011;18508;49.386;8.370;2023-02-18T00:31:46;7.65;;;4.63;;
31990;SDS011;18508;49.386;8.370;2023-02-18T00:34:15;6.80;;;4.32;;
31990;SDS011;18508;49.386;8.370;2023-02-18T00:36:43;8.60;;;4.82;;
31990;SDS011;18508;49.386;8.370;2023-02-18T00:39:13;9.90;;;5.32;;
31990;SDS011;18508;49.386;8.370;2023-02-18T00:41:42;6.53;;;4.45;;
31990;SDS011;18508;49.386;8.370;2023-02-18T00:44:11;7.15;;;4.15;;
31990;SDS011;18508;49.386;8.370;2023-02-18T00:46:41;7.22;;;4.47;;
31990;SDS011;18508;49.386;8.370;2023-02-18T00:49:10;8.63;;;4.40;;
31990;SDS011;18508;49.386;8.370;2023-02-18T00:51:41;7.15;;;4.38;;
31990;SDS011;18508;49.386;8.370;2023-02-18T00:54:09;7.88;;;4.65;;
31990;SDS011;18508;49.386;8.370;2023-02-18T00:56:39;8.60;;;3.95;;
31990;SDS011;18508;49.386;8.370;2023-02-18T00:59:08;6.88;;;4.50;;
31990;SDS011;18508;49.386;8.370;2023-02-18T01:01:36;7.05;;;3.90;;
31990;SDS011;18508;49.386;8.370;2023-02-18T01:04:05;7.30;;;4.07;;
31990;SDS011;18508;49.386;8.370;2023-02-18T01:06:34;6.15;;;3.65;;
31990;SDS011;18508;49.386;8.370;2023-02-18T01:09:02;5.47;;;3.22;;
31990;SDS011;18508;49.386;8.370;2023-02-18T01:11:31;6.72;;;3.40;;
31990;SDS011;18508;49.386;8.370;2023-02-18T01:14:01;7.13;;;3.88;;
31990;SDS011;18508;49.386;8.370;2023-02-18T01:16:30;7.85;;;4.00;;
31990;SDS011;18508;49.386;8.370;2023-02-18T01:18:58;5.40;;;3.42;;
31990;SDS011;18508;49.386;8.370;2023-02-18T01:21:27;6.15;;;3.25;;
31990;SDS011;18508;49.386;8.370;2023-02-18T01:23:55;6.32;;;3.28;;
31990;SDS011;18508;49.386;8.370;2023-02-18T01:26:24;5.10;;;3.35;;
31990;SDS011;18508;49.386;8.370;2023-02-18T01:28:53;5.25;;;3.00;;
31990;SDS011;18508;49.386;8.370;2023-02-18T01:31:23;5.80;;;2.92;;
31990;SDS011;18508;49.386;8.370;2023-02-18T01:33:51;5.43;;;3.20;;
31990;SDS011;18508;49.386;8.370;2023-02-18T01:36:20;4.72;;;2.80;;
31990;SDS011;18508;49.386;8.370;2023-02-18T01:38:49;5.07;;;3.20;;
31990;SDS011;18508;49.386;8.370;2023-02-18T01:41:18;5.93;;;3.58;;
31990;SDS011;18508;49.386;8.370;2023-02-18T01:43:47;4.18;;;2.45;;
31990;SDS011;18508;49.386;8.370;2023-02-18T01:46:17;4.15;;;2.70;;
31990;SDS011;18508;49.386;8.370;2023-02-18T01:48:49;4.60;;;2.67;;
31990;SDS011;18508;49.386;8.370;2023-02-18T01:51:21;4.18;;;2.58;;
31990;SDS011;18508;49.386;8.370;2023-02-18T01:53:54;3.67;;;2.33;;
31990;SDS011;18508;49.386;8.370;2023-02-18T01:56:25;4.57;;;2.63;;
31990;SDS011;18508;49.386;8.370;2023-02-18T02:01:26;4.00;;;2.58;;
31990;SDS011;18508;49.386;8.370;2023-02-18T02:04:01;6.18;;;2.67;;
31990;SDS011;18508;49.386;8.370;2023-02-18T02:06:29;4.57;;;2.50;;
31990;SDS011;18508;49.386;8.370;2023-02-18T02:08:59;4.53;;;2.30;;
31990;SDS011;18508;49.386;8.370;2023-02-18T02:11:34;3.95;;;2.10;;
31990;SDS011;18508;49.386;8.370;2023-02-18T02:14:42;5.15;;;2.83;;
31990;SDS011;18508;49.386;8.370;2023-02-18T02:17:35;4.40;;;2.58;;
31990;SDS011;18508;49.386;8.370;2023-02-18T02:20:25;4.22;;;2.42;;
31990;SDS011;18508;49.386;8.370;2023-02-18T02:29:49;4.45;;;2.50;;
31990;SDS011;18508;49.386;8.370;2023-02-18T02:32:55;4.25;;;2.40;;
31990;SDS011;18508;49.386;8.370;2023-02-18T02:35:37;4.57;;;2.53;;
31990;SDS011;18508;49.386;8.370;2023-02-18T02:38:11;4.20;;;2.55;;
31990;SDS011;18508;49.386;8.370;2023-02-18T02:40:45;3.90;;;2.30;;
31990;SDS011;18508;49.386;8.370;2023-02-18T02:43:24;3.00;;;1.88;;
31990;SDS011;18508;49.386;8.370;2023-02-18T02:46:01;3.80;;;2.03;;
31990;SDS011;18508;49.386;8.370;2023-02-18T02:48:34;3.10;;;1.75;;
31990;SDS011;18508;49.386;8.370;2023-02-18T02:51:12;4.47;;;2.17;;
31990;SDS011;18508;49.386;8.370;2023-02-18T02:53:44;5.25;;;2.05;;
31990;SDS011;18508;49.386;8.370;2023-02-18T02:56:13;5.85;;;2.65;;
31990;SDS011;18508;49.386;8.370;2023-02-18T02:58:44;4.03;;;2.72;;
31990;SDS011;18508;49.386;8.370;2023-02-18T03:01:19;6.70;;;3.08;;
31990;SDS011;18508;49.386;8.370;2023-02-18T03:04:12;4.25;;;2.53;;
31990;SDS011;18508;49.386;8.370;2023-02-18T03:07:06;4.95;;;3.03;;
31990;SDS011;18508;49.386;8.370;2023-02-18T03:10:00;5.18;;;3.22;;
31990;SDS011;18508;49.386;8.370;2023-02-18T03:12:44;4.55;;;3.15;;
31990;SDS011;18508;49.386;8.370;2023-02-18T03:15:20;7.30;;;3.92;;
31990;SDS011;18508;49.386;8.370;2023-02-18T03:17:59;6.78;;;3.38;;
31990;SDS011;18508;49.386;8.370;2023-02-18T03:20:33;5.28;;;3.03;;
31990;SDS011;18508;49.386;8.370;2023-02-18T03:23:06;6.53;;;3.28;;
31990;SDS011;18508;49.386;8.370;2023-02-18T03:25:37;5.57;;;3.25;;
31990;SDS011;18508;49.386;8.370;2023-02-18T03:28:08;4.45;;;2.72;;
31990;SDS011;18508;49.386;8.370;2023-02-18T03:30:41;4.68;;;2.95;;
31990;SDS011;18508;49.386;8.370;2023-02-18T03:33:13;5.97;;;3.03;;
31990;SDS011;18508;49.386;8.370;2023-02-18T03:35:44;5.15;;;3.25;;
31990;SDS011;18508;49.386;8.370;2023-02-18T03:38:17;6.28;;;3.65;;
31990;SDS011;18508;49.386;8.370;2023-02-18T03:40:49;6.28;;;3.83;;
31990;SDS011;18508;49.386;8.370;2023-02-18T03:43:18;5.75;;;3.30;;
31990;SDS011;18508;49.386;8.370;2023-02-18T03:45:46;7.35;;;4.53;;
31990;SDS011;18508;49.386;8.370;2023-02-18T03:48:15;8.35;;;4.05;;
31990;SDS011;18508;49.386;8.370;2023-02-18T03:50:44;7.00;;;3.90;;
31990;SDS011;18508;49.386;8.370;2023-02-18T03:53:12;5.97;;;3.83;;
31990;SDS011;18508;49.386;8.370;2023-02-18T03:55:43;8.95;;;4.78;;
31990;SDS011;18508;49.386;8.370;2023-02-18T03:58:11;7.90;;;4.20;;
31990;SDS011;18508;49.386;8.370;2023-02-18T04:00:39;6.85;;;3.58;;
31990;SDS011;18508;49.386;8.370;2023-02-18T04:03:08;6.70;;;4.18;;
31990;SDS011;18508;49.386;8.370;2023-02-18T04:05:37;7.13;;;4.18;;
31990;SDS011;18508;49.386;8.370;2023-02-18T04:08:06;6.13;;;4.10;;
31990;SDS011;18508;49.386;8.370;2023-02-18T04:10:35;6.20;;;4.55;;
31990;SDS011;18508;49.386;8.370;2023-02-18T04:13:06;7.55;;;4.95;;
31990;SDS011;18508;49.386;8.370;2023-02-18T04:15:34;7.35;;;4.70;;
31990;SDS011;18508;49.386;8.370;2023-02-18T04:18:04;7.65;;;4.53;;
31990;SDS011;18508;49.386;8.370;2023-02-18T04:20:32;9.13;;;4.78;;
31990;SDS011;18508;49.386;8.370;2023-02-18T04:23:02;8.40;;;4.82;;
31990;SDS011;18508;49.386;8.370;2023-02-18T04:25:31;8.75;;;5.75;;
31990;SDS011;18508;49.386;8.370;2023-02-18T04:27:59;7.55;;;5.05;;
31990;SDS011;18508;49.386;8.370;2023-02-18T04:30:29;9.38;;;5.65;;
31990;SDS011;18508;49.386;8.370;2023-02-18T04:32:58;10.13;;;5.95;;
31990;SDS011;18508;49.386;8.370;2023-02-18T04:35:26;10.50;;;6.43;;
31990;SDS011;18508;49.386;8.370;2023-02-18T04:37:55;9.63;;;6.03;;
31990;SDS011;18508;49.386;8.370;2023-02-18T04:40:23;8.38;;;5.57;;
31990;SDS011;18508;49.386;8.370;2023-02-18T04:42:55;7.55;;;5.20;;
31990;SDS011;18508;49.386;8.370;2023-02-18T04:45:25;9.02;;;5.70;;
31990;SDS011;18508;49.386;8.370;2023-02-18T04:47:55;10.02;;;6.40;;
31990;SDS011;18508;49.386;8.370;2023-02-18T04:50:23;11.38;;;6.30;;
31990;SDS011;18508;49.386;8.370;2023-02-18T04:52:52;9.77;;;6.15;;
31990;SDS011;18508;49.386;8.370;2023-02-18T04:55:20;10.50;;;6.43;;
31990;SDS011;18508;49.386;8.370;2023-02-18T04:57:48;11.00;;;7.30;;
31990;SDS011;18508;49.386;8.370;2023-02-18T05:00:17;9.35;;;5.93;;
31990;SDS011;18508;49.386;8.370;2023-02-18T05:02:49;11.38;;;6.85;;
31990;SDS011;18508;49.386;8.370;2023-02-18T05:05:19;12.68;;;6.93;;
31990;SDS011;18508;49.386;8.370;2023-02-18T05:07:49;13.10;;;7.55;;
31990;SDS011;18508;49.386;8.370;2023-02-18T05:10:18;11.90;;;6.63;;
31990;SDS011;18508;49.386;8.370;2023-02-18T05:12:46;10.55;;;6.32;;
31990;SDS011;18508;49.386;8.370;2023-02-18T05:15:15;9.65;;;5.80;;
31990;SDS011;18508;49.386;8.370;2023-02-18T05:17:43;12.77;;;6.57;;
31990;SDS011;18508;49.386;8.370;2023-02-18T05:20:12;11.00;;;6.88;;
31990;SDS011;18508;49.386;8.370;2023-02-18T05:22:42;10.85;;;6.70;;
31990;SDS011;18508;49.386;8.370;2023-02-18T05:25:10;9.77;;;6.55;;
31990;SDS011;18508;49.386;8.370;2023-02-18T05:27:39;11.02;;;6.90;;
31990;SDS011;18508;49.386;8.370;2023-02-18T05:30:08;12.90;;;7.28;;
31990;SDS011;18508;49.386;8.370;2023-02-18T05:32:37;10.05;;;6.57;;
31990;SDS011;18508;49.386;8.370;2023-02-18T05:35:06;11.77;;;6.53;;
31990;SDS011;18508;49.386;8.370;2023-02-18T05:37:36;10.00;;;6.55;;
31990;SDS011;18508;49.386;8.370;2023-02-18T05:40:06;10.40;;;6.57;;
31990;SDS011;18508;49.386;8.370;2023-02-18T05:42:37;9.43;;;5.93;;
31990;SDS011;18508;49.386;8.370;2023-02-18T05:45:05;10.65;;;6.40;;
31990;SDS011;18508;49.386;8.370;2023-02-18T05:47:33;11.20;;;7.18;;
31990;SDS011;18508;49.386;8.370;2023-02-18T05:50:02;11.75;;;6.53;;
31990;SDS011;18508;49.386;8.370;2023-02-18T05:52:31;10.85;;;6.43;;
31990;SDS011;18508;49.386;8.370;2023-02-18T05:54:59;10.43;;;6.38;;
31990;SDS011;18508;49.386;8.370;2023-02-18T05:57:29;11.77;;;6.13;;
31990;SDS011;18508;49.386;8.370;2023-02-18T05:59:57;9.40;;;6.22;;
31990;SDS011;18508;49.386;8.370;2023-02-18T06:02:26;10.85;;;6.85;;
31990;SDS011;18508;49.386;8.370;2023-02-18T06:04:54;14.60;;;9.27;;
31990;SDS011;18508;49.386;8.370;2023-02-18T06:07:22;12.00;;;7.72;;
31990;SDS011;18508;49.386;8.370;2023-02-18T06:09:51;11.88;;;8.15;;
31990;SDS011;18508;49.386;8.370;2023-02-18T06:12:19;12.70;;;7.85;;
31990;SDS011;18508;49.386;8.370;2023-02-18T06:14:49;12.77;;;8.27;;
31990;SDS011;18508;49.386;8.370;2023-02-18T06:17:17;12.65;;;7.97;;
31990;SDS011;18508;49.386;8.370;2023-02-18T06:19:48;14.00;;;8.85;;
31990;SDS011;18508;49.386;8.370;2023-02-18T06:22:17;13.02;;;7.82;;
31990;SDS011;18508;49.386;8.370;2023-02-18T06:24:46;12.40;;;7.10;;
31990;SDS011;18508;49.386;8.370;2023-02-18T06:27:15;12.43;;;7.20;;
31990;SDS011;18508;49.386;8.370;2023-02-18T06:29:50;12.60;;;7.35;;
31990;SDS011;18508;49.386;8.370;2023-02-18T06:32:19;11.07;;;7.15;;
31990;SDS011;18508;49.386;8.370;2023-02-18T06:34:50;11.48;;;7.40;;
31990;SDS011;18508;49.386;8.370;2023-02-18T06:37:18;12.20;;;7.28;;
31990;SDS011;18508;49.386;8.370;2023-02-18T06:39:47;11.05;;;7.00;;
31990;SDS011;18508;49.386;8.370;2023-02-18T06:42:16;11.25;;;7.03;;
31990;SDS011;18508;49.386;8.370;2023-02-18T06:44:44;10.63;;;6.38;;
31990;SDS011;18508;49.386;8.370;2023-02-18T06:47:15;13.38;;;8.20;;
31990;SDS011;18508;49.386;8.370;2023-02-18T06:49:43;10.88;;;7.40;;
31990;SDS011;18508;49.386;8.370;2023-02-18T06:52:13;10.98;;;6.95;;
31990;SDS011;18508;49.386;8.370;2023-02-18T06:54:41;11.90;;;6.57;;
31990;SDS011;18508;49.386;8.370;2023-02-18T06:57:10;10.32;;;6.53;;
31990;SDS011;18508;49.386;8.370;2023-02-18T06:59:39;12.52;;;6.70;;
31990;SDS011;18508;49.386;8.370;2023-02-18T07:02:08;12.35;;;6.90;;
31990;SDS011;18508;49.386;8.370;2023-02-18T07:04:39;13.52;;;8.23;;
31990;SDS011;18508;49.386;8.370;2023-02-18T07:07:11;12.23;;;6.47;;
31990;SDS011;18508;49.386;8.370;2023-02-18T07:09:42;9.30;;;5.90;;
31990;SDS011;18508;49.386;8.370;2023-02-18T07:12:11;10.82;;;6.70;;
31990;SDS011;18508;49.386;8.370;2023-02-18T07:14:39;13.02;;;6.10;;
31990;SDS011;18508;49.386;8.370;2023-02-18T07:17:10;9.88;;;6.28;;
31990;SDS011;18508;49.386;8.370;2023-02-18T07:19:40;12.95;;;6.40;;
31990;SDS011;18508;49.386;8.370;2023-02-18T07:22:09;13.48;;;6.07;;
31990;SDS011;18508;49.386;8.370;2023-02-18T07:24:37;10.73;;;6.18;;
31990;SDS011;18508;49.386;8.370;2023-02-18T07:27:06;10.43;;;6.35;;
31990;SDS011;18508;49.386;8.370;2023-02-18T07:29:39;8.52;;;5.55;;
31990;SDS011;18508;49.386;8.370;2023-02-18T07:32:08;8.43;;;5.75;;
31990;SDS011;18508;49.386;8.370;2023-02-18T07:37:11;7.82;;;5.13;;
31990;SDS011;18508;49.386;8.370;2023-02-18T07:39:40;9.18;;;5.15;;
31990;SDS011;18508;49.386;8.370;2023-02-18T07:42:12;9.15;;;5.43;;
31990;SDS011;18508;49.386;8.370;2023-02-18T07:44:41;10.65;;;5.57;;
31990;SDS011;18508;49.386;8.370;2023-02-18T07:47:11;10.63;;;5.72;;
31990;SDS011;18508;49.386;8.370;2023-02-18T07:49:41;7.97;;;5.10;;
31990;SDS011;18508;49.386;8.370;2023-02-18T07:52:11;7.70;;;4.70;;
31990;SDS011;18508;49.386;8.370;2023-02-18T07:54:39;7.05;;;4.45;;
31990;SDS011;18508;49.386;8.370;2023-02-18T07:57:08;8.45;;;4.85;;
31990;SDS011;18508;49.386;8.370;2023-02-18T07:59:37;10.02;;;5.55;;
31990;SDS011;18508;49.386;8.370;2023-02-18T08:02:05;9.95;;;6.30;;
31990;SDS011;18508;49.386;8.370;2023-02-18T08:04:35;9.88;;;5.70;;
31990;SDS011;18508;49.386;8.370;2023-02-18T08:07:04;7.47;;;5.15;;
31990;SDS011;18508;49.386;8.370;2023-02-18T08:09:33;9.07;;;5.20;;
31990;SDS011;18508;49.386;8.370;2023-02-18T08:12:02;9.32;;;5.15;;
31990;SDS011;18508;49.386;8.370;2023-02-18T08:14:30;9.13;;;5.07;;
31990;SDS011;18508;49.386;8.370;2023-02-18T08:16:59;9.43;;;5.78;;
31990;SDS011;18508;49.386;8.370;2023-02-18T08:19:29;10.90;;;5.78;;
31990;SDS011;18508;49.386;8.370;2023-02-18T08:22:00;8.02;;;5.20;;
31990;SDS011;18508;49.386;8.370;2023-02-18T08:24:31;11.48;;;5.50;;
31990;SDS011;18508;49.386;8.370;2023-02-18T08:26:59;11.18;;;6.82;;
31990;SDS011;18508;49.386;8.370;2023-02-18T08:29:28;9.00;;;5.38;;
31990;SDS011;18508;49.386;8.370;2023-02-18T08:31:58;12.60;;;6.65;;
31990;SDS011;18508;49.386;8.370;2023-02-18T08:34:35;10.38;;;6.40;;
31990;SDS011;18508;49.386;8.370;2023-02-18T08:37:05;10.18;;;6.05;;
31990;SDS011;18508;49.386;8.370;2023-02-18T08:39:37;10.82;;;6.50;;
31990;SDS011;18508;49.386;8.370;2023-02-18T08:42:06;13.07;;;6.68;;
31990;SDS011;18508;49.386;8.370;2023-02-18T08:44:34;12.68;;;6.85;;
31990;SDS011;18508;49.386;8.370;2023-02-18T08:47:03;14.25;;;7.15;;
31990;SDS011;18508;49.386;8.370;2023-02-18T08:49:52;13.13;;;6.95;;
31990;SDS011;18508;49.386;8.370;2023-02-18T08:52:23;9.20;;;6.82;;
31990;SDS011;18508;49.386;8.370;2023-02-18T08:54:53;8.23;;;5.13;;
31990;SDS011;18508;49.386;8.370;2023-02-18T08:57:22;8.68;;;4.97;;
31990;SDS011;18508;49.386;8.370;2023-02-18T08:59:51;8.70;;;5.20;;
31990;SDS011;18508;49.386;8.370;2023-02-18T09:02:20;8.80;;;5.22;;
31990;SDS011;18508;49.386;8.370;2023-02-18T09:04:53;8.57;;;4.25;;
31990;SDS011;18508;49.386;8.370;2023-02-18T09:07:24;6.90;;;4.78;;
31990;SDS011;18508;49.386;8.370;2023-02-18T09:09:55;7.75;;;4.68;;
31990;SDS011;18508;49.386;8.370;2023-02-18T09:12:23;9.02;;;5.80;;
31990;SDS011;18508;49.386;8.370;2023-02-18T09:14:52;9.90;;;5.75;;
31990;SDS011;18508;49.386;8.370;2023-02-18T09:17:21;7.15;;;5.18;;
31990;SDS011;18508;49.386;8.370;2023-02-18T09:19:51;9.07;;;5.18;;
31990;SDS011;18508;49.386;8.370;2023-02-18T09:22:21;16.92;;;8.38;;
31990;SDS011;18508;49.386;8.370;2023-02-18T09:24:53;12.00;;;6.85;;
31990;SDS011;18508;49.386;8.370;2023-02-18T09:27:24;9.77;;;5.72;;
31990;SDS011;18508;49.386;8.370;2023-02-18T09:29:53;9.75;;;6.15;;
31990;SDS011;18508;49.386;8.370;2023-02-18T09:32:22;10.32;;;6.13;;
31990;SDS011;18508;49.386;8.370;2023-02-18T09:35:00;15.32;;;9.52;;
31990;SDS011;18508;49.386;8.370;2023-02-18T09:37:36;7.60;;;4.95;;
31990;SDS011;18508;49.386;8.370;2023-02-18T09:40:07;10.30;;;5.07;;
31990;SDS011;18508;49.386;8.370;2023-02-18T09:42:56;10.20;;;5.65;;
31990;SDS011;18508;49.386;8.370;2023-02-18T09:45:27;8.80;;;4.88;;
31990;SDS011;18508;49.386;8.370;2023-02-18T09:48:03;6.00;;;4.30;;
31990;SDS011;18508;49.386;8.370;2023-02-18T09:50:32;7.28;;;4.18;;
31990;SDS011;18508;49.386;8.370;2023-02-18T09:53:01;7.78;;;4.63;;
31990;SDS011;18508;49.386;8.370;2023-02-18T09:55:31;8.10;;;5.07;;
31990;SDS011;18508;49.386;8.370;2023-02-18T09:58:10;8.38;;;5.00;;
31990;SDS011;18508;49.386;8.370;2023-02-18T10:00:43;7.55;;;4.63;;
31990;SDS011;18508;49.386;8.370;2023-02-18T10:03:15;8.38;;;5.38;;
31990;SDS011;18508;49.386;8.370;2023-02-18T10:05:50;9.50;;;6.20;;
31990;SDS011;18508;49.386;8.370;2023-02-18T10:08:25;8.10;;;5.38;;
31990;SDS011;18508;49.386;8.370;2023-02-18T10:10:57;7.40;;;4.80;;
31990;SDS011;18508;49.386;8.370;2023-02-18T10:13:29;9.90;;;4.63;;
31990;SDS011;18508;49.386;8.370;2023-02-18T10:16:00;8.30;;;4.47;;
31990;SDS011;18508;49.386;8.370;2023-02-18T10:18:32;6.63;;;4.45;;
31990;SDS011;18508;49.386;8.370;2023-02-18T10:21:10;8.07;;;4.95;;
31990;SDS011;18508;49.386;8.370;2023-02-18T10:23:50;7.82;;;4.63;;
31990;SDS011;18508;49.386;8.370;2023-02-18T10:26:24;6.20;;;3.58;;
31990;SDS011;18508;49.386;8.370;2023-02-18T10:28:59;9.80;;;4.45;;
31990;SDS011;18508;49.386;8.370;2023-02-18T10:31:32;6.70;;;4.43;;
31990;SDS011;18508;49.386;8.370;2023-02-18T10:34:06;8.10;;;4.65;;
31990;SDS011;18508;49.386;8.370;2023-02-18T10:36:48;6.45;;;3.72;;
31990;SDS011;18508;49.386;8.370;2023-02-18T10:39:31;6.38;;;3.95;;
31990;SDS011;18508;49.386;8.370;2023-02-18T10:42:19;9.00;;;4.35;;
31990;SDS011;18508;49.386;8.370;2023-02-18T10:45:06;6.78;;;4.07;;
31990;SDS011;18508;49.386;8.370;2023-02-18T10:47:45;8.40;;;4.25;;
31990;SDS011;18508;49.386;8.370;2023-02-18T10:50:31;7.80;;;4.35;;
31990;SDS011;18508;49.386;8.370;2023-02-18T10:53:07;7.68;;;4.53;;
31990;SDS011;18508;49.386;8.370;2023-02-18T10:55:40;8.57;;;5.30;;
31990;SDS011;18508;49.386;8.370;2023-02-18T10:58:23;9.82;;;5.70;;
31990;SDS011;18508;49.386;8.370;2023-02-18T11:01:00;10.13;;;5.40;;
31990;SDS011;18508;49.386;8.370;2023-02-18T11:03:39;8.43;;;5.60;;
31990;SDS011;18508;49.386;8.370;2023-02-18T11:06:19;10.75;;;6.30;;
31990;SDS011;18508;49.386;8.370;2023-02-18T11:08:55;12.13;;;7.07;;
31990;SDS011;18508;49.386;8.370;2023-02-18T11:11:28;10.85;;;7.18;;
31990;SDS011;18508;49.386;8.370;2023-02-18T11:14:02;14.80;;;6.38;;
31990;SDS011;18508;49.386;8.370;2023-02-18T11:16:39;10.63;;;6.95;;
31990;SDS011;18508;49.386;8.370;2023-02-18T11:22:07;14.15;;;7.50;;
31990;SDS011;18508;49.386;8.370;2023-02-18T11:24:45;13.48;;;7.55;;
31990;SDS011;18508;49.386;8.370;2023-02-18T11:27:17;15.32;;;8.25;;
31990;SDS011;18508;49.386;8.370;2023-02-18T11:29:51;11.27;;;7.65;;
31990;SDS011;18508;49.386;8.370;2023-02-18T11:32:26;13.50;;;7.38;;
31990;SDS011;18508;49.386;8.370;2023-02-18T11:34:59;12.93;;;7.90;;
31990;SDS011;18508;49.386;8.370;2023-02-18T11:37:30;11.50;;;7.10;;
31990;SDS011;18508;49.386;8.370;2023-02-18T11:40:00;12.43;;;7.83;;
31990;SDS011;18508;49.386;8.370;2023-02-18T11:42:31;12.90;;;7.53;;
31990;SDS011;18508;49.386;8.370;2023-02-18T11:44:59;12.30;;;6.90;;
31990;SDS011;18508;49.386;8.370;2023-02-18T11:47:33;11.27;;;7.30;;
31990;SDS011;18508;49.386;8.370;2023-02-18T11:50:13;13.02;;;7.68;;
31990;SDS011;18508;49.386;8.370;2023-02-18T11:52:48;11.60;;;7.07;;
31990;SDS011;18508;49.386;8.370;2023-02-18T11:55:23;9.93;;;6.45;;
31990;SDS011;18508;49.386;8.370;2023-02-18T11:57:54;9.50;;;6.38;;
31990;SDS011;18508;49.386;8.370;2023-02-18T12:00:33;12.35;;;7.18;;
31990;SDS011;18508;49.386;8.370;2023-02-18T12:03:12;7.93;;;5.00;;
31990;SDS011;18508;49.386;8.370;2023-02-18T12:05:49;10.77;;;6.53;;
31990;SDS011;18508;49.386;8.370;2023-02-18T12:08:18;10.52;;;6.68;;
31990;SDS011;18508;49.386;8.370;2023-02-18T12:10:51;11.55;;;6.90;;
31990;SDS011;18508;49.386;8.370;2023-02-18T12:13:24;10.30;;;5.88;;
31990;SDS011;18508;49.386;8.370;2023-02-18T12:16:01;11.50;;;5.00;;
31990;SDS011;18508;49.386;8.370;2023-02-18T12:18:47;12.90;;;5.53;;
31990;SDS011;18508;49.386;8.370;2023-02-18T12:21:29;10.35;;;6.30;;
31990;SDS011;18508;49.386;8.370;2023-02-18T12:24:08;8.32;;;5.85;;
31990;SDS011;18508;49.386;8.370;2023-02-18T12:26:51;7.63;;;5.10;;
31990;SDS011;18508;49.386;8.370;2023-02-18T12:29:36;10.52;;;6.38;;
31990;SDS011;18508;49.386;8.370;2023-02-18T12:32:25;8.73;;;5.53;;
31990;SDS011;18508;49.386;8.370;2023-02-18T12:35:18;7.75;;;5.03;;
31990;SDS011;18508;49.386;8.370;2023-02-18T12:38:01;8.98;;;5.55;;
31990;SDS011;18508;49.386;8.370;2023-02-18T12:40:47;8.95;;;5.25;;
31990;SDS011;18508;49.386;8.370;2023-02-18T12:43:27;8.23;;;4.35;;
31990;SDS011;18508;49.386;8.370;2023-02-18T12:46:20;7.43;;;4.55;;
31990;SDS011;18508;49.386;8.370;2023-02-18T12:49:01;8.43;;;5.25;;
31990;SDS011;18508;49.386;8.370;2023-02-18T12:51:46;8.02;;;5.07;;
31990;SDS011;18508;49.386;8.370;2023-02-18T12:54:32;10.13;;;5.40;;
31990;SDS011;18508;49.386;8.370;2023-02-18T12:57:18;7.18;;;4.72;;
31990;SDS011;18508;49.386;8.370;2023-02-18T13:06:20;7.72;;;4.75;;
31990;SDS011;18508;49.386;8.370;2023-02-18T13:09:16;7.32;;;4.88;;
31990;SDS011;18508;49.386;8.370;2023-02-18T13:11:53;6.33;;;4.10;;
31990;SDS011;18508;49.386;8.370;2023-02-18T13:14:31;6.97;;;4.25;;
31990;SDS011;18508;49.386;8.370;2023-02-18T13:17:05;5.47;;;3.58;;
31990;SDS011;18508;49.386;8.370;2023-02-18T13:19:40;7.70;;;4.55;;
31990;SDS011;18508;49.386;8.370;2023-02-18T13:22:14;8.30;;;4.88;;
31990;SDS011;18508;49.386;8.370;2023-02-18T13:24:46;8.32;;;4.00;;
31990;SDS011;18508;49.386;8.370;2023-02-18T13:27:23;9.90;;;5.25;;
31990;SDS011;18508;49.386;8.370;2023-02-18T13:30:06;7.10;;;4.15;;
31990;SDS011;18508;49.386;8.370;2023-02-18T13:32:47;10.05;;;4.93;;
31990;SDS011;18508;49.386;8.370;2023-02-18T13:35:27;9.68;;;4.72;;
31990;SDS011;18508;49.386;8.370;2023-02-18T13:38:14;7.35;;;4.18;;
31990;SDS011;18508;49.386;8.370;2023-02-18T13:41:01;7.28;;;4.35;;
31990;SDS011;18508;49.386;8.370;2023-02-18T13:43:34;6.88;;;4.47;;
31990;SDS011;18508;49.386;8.370;2023-02-18T13:46:03;8.85;;;5.13;;
31990;SDS011;18508;49.386;8.370;2023-02-18T13:48:42;8.55;;;4.05;;
31990;SDS011;18508;49.386;8.370;2023-02-18T13:51:17;7.95;;;4.20;;
31990;SDS011;18508;49.386;8.370;2023-02-18T13:53:58;7.78;;;4.38;;
31990;SDS011;18508;49.386;8.370;2023-02-18T13:56:33;7.00;;;4.25;;
31990;SDS011;18508;49.386;8.370;2023-02-18T13:59:07;9.68;;;5.45;;
31990;SDS011;18508;49.386;8.370;2023-02-18T14:01:40;9.43;;;5.50;;
31990;SDS011;18508;49.386;8.370;2023-02-18T14:07:31;6.95;;;4.50;;
31990;SDS011;18508;49.386;8.370;2023-02-18T14:10:25;5.95;;;4.22;;
31990;SDS011;18508;49.386;8.370;2023-02-18T14:13:16;5.35;;;3.55;;
31990;SDS011;18508;49.386;8.370;2023-02-18T14:16:00;7.88;;;4.55;;
31990;SDS011;18508;49.386;8.370;2023-02-18T14:18:30;7.82;;;4.50;;
31990;SDS011;18508;49.386;8.370;2023-02-18T14:21:17;7.70;;;3.70;;
31990;SDS011;18508;49.386;8.370;2023-02-18T14:24:03;9.43;;;5.25;;
31990;SDS011;18508;49.386;8.370;2023-02-18T14:26:35;7.40;;;4.78;;
31990;SDS011;18508;49.386;8.370;2023-02-18T14:29:10;8.27;;;3.85;;
31990;SDS011;18508;49.386;8.370;2023-02-18T14:31:50;7.72;;;4.50;;
31990;SDS011;18508;49.386;8.370;2023-02-18T14:34:44;9.75;;;5.65;;
31990;SDS011;18508;49.386;8.370;2023-02-18T14:37:32;7.65;;;4.53;;
31990;SDS011;18508;49.386;8.370;2023-02-18T14:43:12;8.90;;;4.05;;
31990;SDS011;18508;49.386;8.370;2023-02-18T14:46:01;8.15;;;5.13;;
31990;SDS011;18508;49.386;8.370;2023-02-18T14:48:40;7.88;;;4.80;;
31990;SDS011;18508;49.386;8.370;2023-02-18T14:51:19;6.15;;;3.97;;
31990;SDS011;18508;49.386;8.370;2023-02-18T14:53:51;5.90;;;3.55;;
31990;SDS011;18508;49.386;8.370;2023-02-18T14:56:19;8.38;;;4.53;;
31990;SDS011;18508;49.386;8.370;2023-02-18T14:58:50;6.60;;;4.30;;
31990;SDS011;18508;49.386;8.370;2023-02-18T15:01:26;6.72;;;4.57;;
31990;SDS011;18508;49.386;8.370;2023-02-18T15:03:56;7.07;;;4.25;;
31990;SDS011;18508;49.386;8.370;2023-02-18T15:06:27;8.05;;;4.82;;
31990;SDS011;18508;49.386;8.370;2023-02-18T15:08:57;7.32;;;4.38;;
31990;SDS011;18508;49.386;8.370;2023-02-18T15:11:34;8.25;;;4.80;;
31990;SDS011;18508;49.386;8.370;2023-02-18T15:14:07;7.88;;;4.68;;
31990;SDS011;18508;49.386;8.370;2023-02-18T15:16:44;6.88;;;4.18;;
31990;SDS011;18508;49.386;8.370;2023-02-18T15:19:17;7.70;;;5.38;;
31990;SDS011;18508;49.386;8.370;2023-02-18T15:21:48;9.48;;;4.93;;
31990;SDS011;18508;49.386;8.370;2023-02-18T15:24:21;9.73;;;5.38;;
31990;SDS011;18508;49.386;8.370;2023-02-18T15:26:55;7.40;;;4.43;;
31990;SDS011;18508;49.386;8.370;2023-02-18T15:29:26;8.02;;;4.85;;
31990;SDS011;18508;49.386;8.370;2023-02-18T15:31:57;6.38;;;4.30;;
31990;SDS011;18508;49.386;8.370;2023-02-18T15:34:29;8.18;;;5.18;;
31990;SDS011;18508;49.386;8.370;2023-02-18T15:37:02;9.95;;;4.60;;
31990;SDS011;18508;49.386;8.370;2023-02-18T15:39:32;8.32;;;4.85;;
31990;SDS011;18508;49.386;8.370;2023-02-18T15:42:06;8.82;;;5.22;;
31990;SDS011;18508;49.386;8.370;2023-02-18T15:44:44;8.40;;;4.85;;
31990;SDS011;18508;49.386;8.370;2023-02-18T15:47:18;8.60;;;4.93;;